createdAt,value
2023-02-04T00:00:07.509Z,2.35
2023-02-04T00:02:34.922Z,1.90
2023-02-04T00:05:01.878Z,1.92
2023-02-04T00:07:28.500Z,1.95
2023-02-04T00:09:55.233Z,2.45
2023-02-04T00:12:22.646Z,2.13
2023-02-04T00:14:49.186Z,2.25
2023-02-04T00:17:15.770Z,2.05
2023-02-04T00:19:42.692Z,2.45
2023-02-04T00:22:10.051Z,2.15
2023-02-04T00:24:37.249Z,2.03
2023-02-04T00:27:05.284Z,2.47
2023-02-04T00:29:31.834Z,2.25
2023-02-04T00:31:58.561Z,2.25
2023-02-04T00:34:27.439Z,1.92
2023-02-04T00:36:54.046Z,1.90
2023-02-04T00:39:20.653Z,1.88
2023-02-04T00:41:47.278Z,3.08
2023-02-04T00:44:14.376Z,2.15
2023-02-04T00:46:42.861Z,2.03
2023-02-04T00:49:10.876Z,2.33
2023-02-04T00:51:39.402Z,3.00
2023-02-04T00:54:07.222Z,2.92
2023-02-04T00:56:34.597Z,2.00
2023-02-04T00:59:01.149Z,2.00
2023-02-04T01:01:27.809Z,2.50
2023-02-04T01:03:54.390Z,3.00
2023-02-04T01:06:21.037Z,2.70
2023-02-04T01:08:47.594Z,2.33
2023-02-04T01:11:14.529Z,2.28
2023-02-04T01:13:41.350Z,1.73
2023-02-04T01:16:08.136Z,2.30
2023-02-04T01:18:34.769Z,2.30
2023-02-04T01:21:01.359Z,2.72
2023-02-04T01:23:28.030Z,1.70
2023-02-04T01:25:54.616Z,2.30
2023-02-04T01:28:21.189Z,2.20
2023-02-04T01:30:47.918Z,2.17
2023-02-04T01:33:14.468Z,1.70
2023-02-04T01:35:41.114Z,1.67
2023-02-04T01:38:07.854Z,2.58
2023-02-04T01:40:34.967Z,2.35
2023-02-04T01:43:01.710Z,2.08
2023-02-04T01:45:30.665Z,2.15
2023-02-04T01:47:57.623Z,1.52
2023-02-04T01:50:24.239Z,1.80
2023-02-04T01:52:51.022Z,1.55
2023-02-04T01:55:21.659Z,1.83
2023-02-04T01:57:50.753Z,1.40
2023-02-04T02:00:23.661Z,2.55
2023-02-04T02:02:52.062Z,2.15
2023-02-04T02:05:24.089Z,2.47
2023-02-04T02:07:53.939Z,1.27
2023-02-04T02:10:21.604Z,1.75
2023-02-04T02:12:48.828Z,2.80
2023-02-04T02:15:16.759Z,2.45
2023-02-04T02:17:43.842Z,2.15
2023-02-04T02:20:14.939Z,2.03
2023-02-04T02:22:59.810Z,1.98
2023-02-04T02:25:26.437Z,2.53
2023-02-04T02:27:54.426Z,1.77
2023-02-04T02:30:21.779Z,2.40
2023-02-04T02:32:50.656Z,2.45
2023-02-04T02:35:17.566Z,2.00
2023-02-04T02:37:44.159Z,2.05
2023-02-04T02:40:13.459Z,1.42
2023-02-04T02:42:41.131Z,2.20
2023-02-04T02:45:15.858Z,2.28
2023-02-04T02:47:43.067Z,2.33
2023-02-04T02:50:15.592Z,2.67
2023-02-04T02:52:42.204Z,1.85
2023-02-04T02:55:18.203Z,2.63
2023-02-04T02:57:46.624Z,2.28
2023-02-04T03:00:21.853Z,2.75
2023-02-04T03:02:59.888Z,2.03
2023-02-04T03:05:29.362Z,1.42
2023-02-04T03:07:57.200Z,1.85
2023-02-04T03:10:23.829Z,2.33
2023-02-04T03:12:51.067Z,2.67
2023-02-04T03:15:17.988Z,2.28
2023-02-04T03:17:46.752Z,1.70
2023-02-04T03:20:15.353Z,1.65
2023-02-04T03:22:42.411Z,2.00
2023-02-04T03:25:08.994Z,2.50
2023-02-04T03:27:35.613Z,2.13
2023-02-04T03:30:02.138Z,2.03
2023-02-04T03:32:28.860Z,2.10
2023-02-04T03:34:55.451Z,1.67
2023-02-04T03:37:22.080Z,1.98
2023-02-04T03:39:48.617Z,2.13
2023-02-04T03:42:15.262Z,1.75
2023-02-04T03:44:41.833Z,1.70
2023-02-04T03:47:08.398Z,2.50
2023-02-04T03:49:36.049Z,1.63
2023-02-04T03:52:04.092Z,1.55
2023-02-04T03:54:30.778Z,2.70
2023-02-04T03:56:57.639Z,1.95
2023-02-04T03:59:24.305Z,2.47
2023-02-04T04:01:52.474Z,1.98
2023-02-04T04:04:19.320Z,2.10
2023-02-04T04:06:45.996Z,2.85
2023-02-04T04:09:12.597Z,2.45
2023-02-04T04:11:39.159Z,2.05
2023-02-04T04:14:05.912Z,1.40
2023-02-04T04:16:32.631Z,2.63
2023-02-04T04:18:59.272Z,1.75
2023-02-04T04:21:25.868Z,2.10
2023-02-04T04:23:52.428Z,1.98
2023-02-04T04:26:20.014Z,2.38
2023-02-04T04:28:46.662Z,2.22
2023-02-04T04:31:13.719Z,1.73
2023-02-04T04:33:40.664Z,1.90
2023-02-04T04:36:07.725Z,2.53
2023-02-04T04:38:34.389Z,2.15
2023-02-04T04:41:01.290Z,2.17
2023-02-04T04:43:27.794Z,2.35
2023-02-04T04:45:54.358Z,1.92
2023-02-04T04:48:21.678Z,2.45
2023-02-04T04:50:48.277Z,2.08
2023-02-04T04:53:14.948Z,2.53
2023-02-04T04:55:41.630Z,2.42
2023-02-04T04:58:09.648Z,2.20
2023-02-04T05:00:36.530Z,1.38
2023-02-04T05:03:03.142Z,1.60
2023-02-04T05:05:29.887Z,2.22
2023-02-04T05:07:57.552Z,1.58
2023-02-04T05:10:24.222Z,1.83
2023-02-04T05:12:51.046Z,1.88
2023-02-04T05:15:17.821Z,1.80
2023-02-04T05:17:44.342Z,2.38
2023-02-04T05:20:11.460Z,2.45
2023-02-04T05:22:38.013Z,2.85
2023-02-04T05:25:04.783Z,1.73
2023-02-04T05:27:31.278Z,1.45
2023-02-04T05:29:57.855Z,2.40
2023-02-04T05:32:24.372Z,1.88
2023-02-04T05:34:51.069Z,2.15
2023-02-04T05:37:18.976Z,1.55
2023-02-04T05:39:45.577Z,1.80
2023-02-04T05:42:12.184Z,2.35
2023-02-04T05:44:38.837Z,2.85
2023-02-04T05:47:05.368Z,1.60
2023-02-04T05:49:32.161Z,2.08
2023-02-04T05:51:59.079Z,2.05
2023-02-04T05:54:26.090Z,2.42
2023-02-04T05:56:52.648Z,1.67
2023-02-04T05:59:19.229Z,1.88
2023-02-04T06:01:45.820Z,1.85
2023-02-04T06:04:12.487Z,2.03
2023-02-04T06:06:39.059Z,2.80
2023-02-04T06:09:05.586Z,2.38
2023-02-04T06:11:32.179Z,2.55
2023-02-04T06:13:59.094Z,2.10
2023-02-04T06:16:25.773Z,1.65
2023-02-04T06:18:52.424Z,2.72
2023-02-04T06:21:19.243Z,2.28
2023-02-04T06:23:45.857Z,2.42
2023-02-04T06:26:12.950Z,2.25
2023-02-04T06:28:39.576Z,2.55
2023-02-04T06:31:06.220Z,1.67
2023-02-04T06:33:32.827Z,2.00
2023-02-04T06:35:59.459Z,2.53
2023-02-04T06:38:26.075Z,1.73
2023-02-04T06:40:53.705Z,3.13
2023-02-04T06:43:21.700Z,2.47
2023-02-04T06:45:48.512Z,2.25
2023-02-04T06:48:15.066Z,1.50
2023-02-04T06:50:41.922Z,1.92
2023-02-04T06:53:08.642Z,2.17
2023-02-04T06:55:35.214Z,2.30
2023-02-04T06:58:02.553Z,2.17
2023-02-04T07:00:31.534Z,2.22
2023-02-04T07:02:58.973Z,1.45
2023-02-04T07:05:25.944Z,2.20
2023-02-04T07:07:52.545Z,1.83
2023-02-04T07:10:20.921Z,1.50
2023-02-04T07:12:47.478Z,2.92
2023-02-04T07:15:14.104Z,1.98
2023-02-04T07:17:40.659Z,2.15
2023-02-04T07:20:07.714Z,1.98
2023-02-04T07:22:34.376Z,2.08
2023-02-04T07:25:00.838Z,2.25
2023-02-04T07:27:27.352Z,2.13
2023-02-04T07:29:53.931Z,1.63
2023-02-04T07:32:20.521Z,1.77
2023-02-04T07:34:48.072Z,1.67
2023-02-04T07:37:15.153Z,2.42
2023-02-04T07:39:41.746Z,1.95
2023-02-04T07:42:08.598Z,1.67
2023-02-04T07:44:43.730Z,1.75
2023-02-04T07:47:10.339Z,2.05
2023-02-04T07:49:36.922Z,1.80
2023-02-04T07:52:03.514Z,2.13
2023-02-04T07:54:30.183Z,2.03
2023-02-04T07:56:56.686Z,1.90
2023-02-04T07:59:23.374Z,2.03
2023-02-04T08:01:49.968Z,2.28
2023-02-04T08:04:16.663Z,1.95
2023-02-04T08:06:43.202Z,1.75
2023-02-04T08:09:09.880Z,1.60
2023-02-04T08:11:36.403Z,1.92
2023-02-04T08:14:03.053Z,2.95
2023-02-04T08:16:29.762Z,2.38
2023-02-04T08:18:56.341Z,2.33
2023-02-04T08:21:23.598Z,1.58
2023-02-04T08:23:50.257Z,1.95
2023-02-04T08:26:16.785Z,1.55
2023-02-04T08:28:43.373Z,2.17
2023-02-04T08:31:11.927Z,2.03
2023-02-04T08:33:39.767Z,2.00
2023-02-04T08:36:07.492Z,2.47
2023-02-04T08:38:34.316Z,2.20
2023-02-04T08:41:01.303Z,1.67
2023-02-04T08:43:28.125Z,2.90
2023-02-04T08:45:54.914Z,2.92
2023-02-04T08:48:21.478Z,2.30
2023-02-04T08:50:48.050Z,2.10
2023-02-04T08:53:14.692Z,2.88
2023-02-04T08:55:41.258Z,2.67
2023-02-04T08:58:08.053Z,2.30
2023-02-04T09:00:35.145Z,2.58
2023-02-04T09:03:01.920Z,2.83
2023-02-04T09:05:28.439Z,3.08
2023-02-04T09:07:55.074Z,3.08
2023-02-04T09:10:21.715Z,2.63
2023-02-04T09:12:48.328Z,3.08
2023-02-04T09:15:15.024Z,3.47
2023-02-04T09:17:43.789Z,2.60
2023-02-04T09:20:10.839Z,2.65
2023-02-04T09:22:37.791Z,2.72
2023-02-04T09:25:04.718Z,3.00
2023-02-04T09:27:31.270Z,2.78
2023-02-04T09:29:57.883Z,2.08
2023-02-04T09:32:24.534Z,2.60
2023-02-04T09:34:51.052Z,3.08
2023-02-04T09:37:17.906Z,2.88
2023-02-04T09:39:44.452Z,2.03
2023-02-04T09:42:14.932Z,2.20
2023-02-04T09:44:42.112Z,2.08
2023-02-04T09:47:11.865Z,3.20
2023-02-04T09:49:38.784Z,2.63
2023-02-04T09:52:12.174Z,1.95
2023-02-04T09:54:38.830Z,2.47
2023-02-04T09:57:20.032Z,3.58
2023-02-04T09:59:47.231Z,2.60
2023-02-04T10:02:25.622Z,2.67
2023-02-04T10:04:57.773Z,2.92
2023-02-04T10:07:25.229Z,2.33
2023-02-04T10:09:54.352Z,4.32
2023-02-04T10:12:21.577Z,2.35
2023-02-04T10:14:48.730Z,3.70
2023-02-04T10:17:20.934Z,2.60
2023-02-04T10:19:48.086Z,3.10
2023-02-04T10:22:18.743Z,3.55
2023-02-04T10:24:45.531Z,3.85
2023-02-04T10:27:16.067Z,3.42
2023-02-04T10:29:43.823Z,2.63
2023-02-04T10:32:28.860Z,3.40
2023-02-04T10:35:01.188Z,3.13
2023-02-04T10:37:28.049Z,2.85
2023-02-04T10:39:54.774Z,2.50
2023-02-04T10:42:28.523Z,3.22
2023-02-04T10:44:55.598Z,3.03
2023-02-04T10:47:23.672Z,3.05
2023-02-04T10:49:58.859Z,3.35
2023-02-04T10:52:39.891Z,3.45
2023-02-04T10:55:13.565Z,3.50
2023-02-04T10:57:42.459Z,3.45
2023-02-04T11:00:21.459Z,3.95
2023-02-04T11:02:59.143Z,4.68
2023-02-04T11:05:31.213Z,3.67
2023-02-04T11:07:58.380Z,4.70
2023-02-04T11:10:29.999Z,4.82
2023-02-04T11:12:56.538Z,4.93
2023-02-04T11:15:38.469Z,5.65
2023-02-04T11:18:21.871Z,6.47
2023-02-04T11:20:54.974Z,5.82
2023-02-04T11:23:28.370Z,5.35
2023-02-04T11:26:07.599Z,6.07
2023-02-04T11:28:45.637Z,4.50
2023-02-04T11:31:26.689Z,5.13
2023-02-04T11:34:26.253Z,4.85
2023-02-04T11:37:01.890Z,5.45
2023-02-04T11:39:34.150Z,5.18
2023-02-04T11:42:01.455Z,4.47
2023-02-04T11:44:28.610Z,5.00
2023-02-04T11:46:56.458Z,4.47
2023-02-04T11:49:25.337Z,4.65
2023-02-04T11:52:08.511Z,5.40
2023-02-04T11:54:36.421Z,5.85
2023-02-04T11:57:03.584Z,5.35
2023-02-04T11:59:30.276Z,5.25
2023-02-04T12:02:15.187Z,4.90
2023-02-04T12:04:51.618Z,4.15
2023-02-04T12:07:24.586Z,4.85
2023-02-04T12:09:51.446Z,5.00
2023-02-04T12:12:26.926Z,4.80
2023-02-04T12:17:24.205Z,4.97
2023-02-04T12:19:50.723Z,5.20
2023-02-04T12:22:17.301Z,4.32
2023-02-04T12:24:44.995Z,4.72
2023-02-04T12:27:11.683Z,3.88
2023-02-04T12:29:39.067Z,3.92
2023-02-04T12:32:05.775Z,3.88
2023-02-04T12:34:32.285Z,4.68
2023-02-04T12:36:58.905Z,3.55
2023-02-04T12:39:25.651Z,2.88
2023-02-04T12:41:52.272Z,2.65
2023-02-04T12:44:19.061Z,3.03
2023-02-04T12:46:45.930Z,3.50
2023-02-04T12:49:12.651Z,3.05
2023-02-04T12:51:39.278Z,3.17
2023-02-04T12:54:06.030Z,2.63
2023-02-04T12:56:32.668Z,2.72
2023-02-04T12:58:59.244Z,2.60
2023-02-04T13:01:25.981Z,3.63
2023-02-04T13:03:52.533Z,2.85
2023-02-04T13:06:19.045Z,3.72
2023-02-04T13:08:45.604Z,2.55
2023-02-04T13:11:12.314Z,2.92
2023-02-04T13:13:38.966Z,3.03
2023-02-04T13:16:05.762Z,2.88
2023-02-04T13:18:34.112Z,3.28
2023-02-04T13:21:00.764Z,2.95
2023-02-04T13:23:27.462Z,2.25
2023-02-04T13:25:54.053Z,2.38
2023-02-04T13:28:20.674Z,2.50
2023-02-04T13:30:47.417Z,2.00
2023-02-04T13:33:14.081Z,2.55
2023-02-04T13:35:40.829Z,3.08
2023-02-04T13:38:07.412Z,1.65
2023-02-04T13:40:34.163Z,2.17
2023-02-04T13:43:00.771Z,2.33
2023-02-04T13:45:27.656Z,2.30
2023-02-04T13:47:54.168Z,2.60
2023-02-04T13:50:20.776Z,2.63
2023-02-04T13:52:47.257Z,2.28
2023-02-04T13:55:13.912Z,1.25
2023-02-04T13:57:40.416Z,2.00
2023-02-04T14:00:08.254Z,2.13
2023-02-04T14:02:41.081Z,1.92
2023-02-04T14:05:07.744Z,2.20
2023-02-04T14:07:34.381Z,2.20
2023-02-04T14:10:01.011Z,2.45
2023-02-04T14:12:27.833Z,2.00
2023-02-04T14:14:54.451Z,2.63
2023-02-04T14:17:21.008Z,2.22
2023-02-04T14:19:47.544Z,1.55
2023-02-04T14:22:14.130Z,2.50
2023-02-04T14:24:42.500Z,2.03
2023-02-04T14:27:10.567Z,1.80
2023-02-04T14:29:37.604Z,2.20
2023-02-04T14:32:04.508Z,2.45
2023-02-04T14:34:31.168Z,2.15
2023-02-04T14:36:57.898Z,2.22
2023-02-04T14:39:24.417Z,1.83
2023-02-04T14:41:51.103Z,2.10
2023-02-04T14:44:20.654Z,3.05
2023-02-04T14:46:48.903Z,2.05
2023-02-04T14:49:18.705Z,1.33
2023-02-04T14:51:45.369Z,1.92
2023-02-04T14:54:12.019Z,2.13
2023-02-04T14:56:38.805Z,2.17
2023-02-04T14:59:05.620Z,2.03
2023-02-04T15:01:32.762Z,2.25
2023-02-04T15:04:02.781Z,1.70
2023-02-04T15:06:30.039Z,2.05
2023-02-04T15:08:57.108Z,2.33
2023-02-04T15:11:23.694Z,2.30
2023-02-04T15:13:50.195Z,3.03
2023-02-04T15:16:16.834Z,3.10
2023-02-04T15:18:43.595Z,2.50
2023-02-04T15:21:10.189Z,2.38
2023-02-04T15:23:37.178Z,3.25
2023-02-04T15:26:04.014Z,2.90
2023-02-04T15:28:31.319Z,2.90
2023-02-04T15:30:58.090Z,2.67
2023-02-04T15:33:24.638Z,2.47
2023-02-04T15:35:51.167Z,2.47
2023-02-04T15:38:17.860Z,2.97
2023-02-04T15:40:44.422Z,3.00
2023-02-04T15:43:10.949Z,2.25
2023-02-04T15:45:41.219Z,2.78
2023-02-04T15:48:08.384Z,2.90
2023-02-04T15:50:35.132Z,2.50
2023-02-04T15:53:02.164Z,2.50
2023-02-04T15:55:28.921Z,2.92
2023-02-04T15:57:56.276Z,2.30
2023-02-04T16:00:23.037Z,3.08
2023-02-04T16:02:50.045Z,2.83
2023-02-04T16:05:17.014Z,2.75
2023-02-04T16:07:43.583Z,2.33
2023-02-04T16:10:11.194Z,2.35
2023-02-04T16:12:37.897Z,2.30
2023-02-04T16:15:04.739Z,2.80
2023-02-04T16:17:31.752Z,2.42
2023-02-04T16:19:58.398Z,2.45
2023-02-04T16:22:24.996Z,2.40
2023-02-04T16:24:52.771Z,3.20
2023-02-04T16:27:19.840Z,3.20
2023-02-04T16:29:47.129Z,3.00
2023-02-04T16:32:14.296Z,2.22
2023-02-04T16:34:41.579Z,2.25
2023-02-04T16:37:09.458Z,2.55
2023-02-04T16:39:38.851Z,2.25
2023-02-04T16:42:08.606Z,2.15
2023-02-04T16:44:38.946Z,2.28
2023-02-04T16:47:07.054Z,2.20
2023-02-04T16:49:34.124Z,2.78
2023-02-04T16:52:04.188Z,3.25
2023-02-04T16:54:31.992Z,2.70
2023-02-04T16:57:00.210Z,2.85
2023-02-04T16:59:28.681Z,3.15
2023-02-04T17:02:00.406Z,3.05
2023-02-04T17:04:27.457Z,2.70
2023-02-04T17:06:53.981Z,2.38
2023-02-04T17:09:20.617Z,3.00
2023-02-04T17:11:47.152Z,3.08
2023-02-04T17:14:17.360Z,2.58
2023-02-04T17:16:45.645Z,2.70
2023-02-04T17:19:13.764Z,2.95
2023-02-04T17:21:40.636Z,2.90
2023-02-04T17:24:08.382Z,3.40
2023-02-04T17:26:40.299Z,3.05
2023-02-04T17:29:09.400Z,2.60
2023-02-04T17:31:36.258Z,2.35
2023-02-04T17:34:03.226Z,2.17
2023-02-04T17:36:31.237Z,2.55
2023-02-04T17:38:58.397Z,2.85
2023-02-04T17:41:25.089Z,3.47
2023-02-04T17:43:52.232Z,2.25
2023-02-04T17:46:18.818Z,3.65
2023-02-04T17:48:45.660Z,2.55
2023-02-04T17:51:12.379Z,2.72
2023-02-04T17:53:40.436Z,3.30
2023-02-04T17:56:12.092Z,3.00
2023-02-04T17:58:39.046Z,2.83
2023-02-04T18:01:11.562Z,3.13
2023-02-04T18:03:39.209Z,4.30
2023-02-04T18:06:23.618Z,3.60
2023-02-04T18:08:51.678Z,3.05
2023-02-04T18:11:22.997Z,3.35
2023-02-04T18:13:50.153Z,3.38
2023-02-04T18:16:27.059Z,3.90
2023-02-04T18:19:05.502Z,2.78
2023-02-04T18:21:32.442Z,3.45
2023-02-04T18:24:22.095Z,2.85
2023-02-04T18:26:52.391Z,3.55
2023-02-04T18:29:37.364Z,3.05
2023-02-04T18:32:15.786Z,3.28
2023-02-04T18:34:45.761Z,2.95
2023-02-04T18:37:36.355Z,4.18
2023-02-04T18:40:08.986Z,3.17
2023-02-04T18:42:44.212Z,2.80
2023-02-04T18:45:24.996Z,2.95
2023-02-04T18:47:56.951Z,3.00
2023-02-04T18:50:32.857Z,3.67
2023-02-04T18:53:12.397Z,3.60
2023-02-04T18:55:43.233Z,3.20
2023-02-04T18:58:33.878Z,2.90
2023-02-04T19:01:03.227Z,3.28
2023-02-04T19:03:33.348Z,3.80
2023-02-04T19:06:02.313Z,3.15
2023-02-04T19:08:43.615Z,3.90
2023-02-04T19:11:37.357Z,3.42
2023-02-04T19:14:30.445Z,3.30
2023-02-04T19:17:16.926Z,3.08
2023-02-04T19:19:47.120Z,3.00
2023-02-04T19:22:17.596Z,3.67
2023-02-04T19:24:45.208Z,4.20
2023-02-04T19:27:29.698Z,3.10
2023-02-04T19:29:59.481Z,3.40
2023-02-04T19:32:28.783Z,3.25
2023-02-04T19:34:59.571Z,4.43
2023-02-04T19:37:33.625Z,4.03
2023-02-04T19:40:01.505Z,4.15
2023-02-04T19:42:33.620Z,3.42
2023-02-04T19:45:02.794Z,4.00
2023-02-04T19:47:40.587Z,3.70
2023-02-04T19:50:13.423Z,3.30
2023-02-04T19:52:52.309Z,4.28
2023-02-04T19:55:35.101Z,4.28
2023-02-04T19:58:17.742Z,3.80
2023-02-04T20:00:51.461Z,3.35
2023-02-04T20:03:20.948Z,4.07
2023-02-04T20:05:47.636Z,4.28
2023-02-04T20:08:37.734Z,4.18
2023-02-04T20:11:36.857Z,4.70
2023-02-04T20:14:15.676Z,4.55
2023-02-04T20:16:58.345Z,4.72
2023-02-04T20:19:34.426Z,3.78
2023-02-04T20:22:23.359Z,4.72
2023-02-04T20:24:52.914Z,5.43
2023-02-04T20:27:27.418Z,3.90
2023-02-04T20:30:26.649Z,4.93
2023-02-04T20:32:58.515Z,4.95
2023-02-04T20:35:28.412Z,4.78
2023-02-04T20:37:57.757Z,4.05
2023-02-04T20:40:35.704Z,4.72
2023-02-04T20:43:16.092Z,4.88
2023-02-04T20:45:55.676Z,4.47
2023-02-04T20:48:32.864Z,4.57
2023-02-04T20:51:02.786Z,4.40
2023-02-04T20:53:38.676Z,3.78
2023-02-04T20:56:54.127Z,4.10
2023-02-04T20:59:20.745Z,4.13
2023-02-04T21:01:49.981Z,4.10
2023-02-04T21:04:33.787Z,4.22
2023-02-04T21:07:06.588Z,3.85
2023-02-04T21:09:34.446Z,4.28
2023-02-04T21:12:02.320Z,3.28
2023-02-04T21:14:29.818Z,3.70
2023-02-04T21:16:56.658Z,3.63
2023-02-04T21:19:25.206Z,4.72
2023-02-04T21:21:52.349Z,3.67
2023-02-04T21:24:18.997Z,3.05
2023-02-04T21:26:45.594Z,3.65
2023-02-04T21:29:12.366Z,3.92
2023-02-04T21:31:39.344Z,4.28
2023-02-04T21:34:06.426Z,3.13
2023-02-04T21:36:33.175Z,3.75
2023-02-04T21:39:00.180Z,3.45
2023-02-04T21:41:26.797Z,3.35
2023-02-04T21:43:53.774Z,3.78
2023-02-04T21:46:20.650Z,4.03
2023-02-04T21:48:47.491Z,3.92
2023-02-04T21:51:15.192Z,3.55
2023-02-04T21:53:42.162Z,3.58
2023-02-04T21:56:09.392Z,3.40
2023-02-04T21:58:36.456Z,3.33
2023-02-04T22:01:03.141Z,3.15
2023-02-04T22:03:29.757Z,3.40
2023-02-04T22:05:56.288Z,3.78
2023-02-04T22:08:22.964Z,3.53
2023-02-04T22:10:49.517Z,3.25
2023-02-04T22:13:16.110Z,3.95
2023-02-04T22:15:42.734Z,3.85
2023-02-04T22:18:09.497Z,3.75
2023-02-04T22:20:38.003Z,3.33
2023-02-04T22:23:05.725Z,4.10
2023-02-04T22:25:32.540Z,3.92
2023-02-04T22:27:59.504Z,3.38
2023-02-04T22:30:26.251Z,3.55
2023-02-04T22:32:53.004Z,4.35
2023-02-04T22:35:19.731Z,4.15
2023-02-04T22:37:46.433Z,3.88
2023-02-04T22:40:13.507Z,3.65
2023-02-04T22:42:40.148Z,4.28
2023-02-04T22:45:07.905Z,3.30
2023-02-04T22:47:34.485Z,4.15
2023-02-04T22:50:01.078Z,4.20
2023-02-04T22:52:27.903Z,3.90
2023-02-04T22:54:54.509Z,3.92
2023-02-04T22:57:21.236Z,3.85
2023-02-04T22:59:47.889Z,3.70
2023-02-04T23:02:14.514Z,4.35
2023-02-04T23:04:43.914Z,4.25
2023-02-04T23:07:12.077Z,3.50
2023-02-04T23:09:38.698Z,4.00
2023-02-04T23:12:14.860Z,4.68
2023-02-04T23:14:44.257Z,4.32
2023-02-04T23:17:11.447Z,4.07
2023-02-04T23:19:38.070Z,4.30
2023-02-04T23:22:06.304Z,5.10
2023-02-04T23:24:33.340Z,5.22
2023-02-04T23:27:01.384Z,4.20
2023-02-04T23:29:28.461Z,5.40
2023-02-04T23:31:55.949Z,5.47
2023-02-04T23:34:22.732Z,6.05
2023-02-04T23:36:51.095Z,6.43
2023-02-04T23:39:21.534Z,6.38
2023-02-04T23:41:49.095Z,5.88
2023-02-04T23:44:15.886Z,5.75
2023-02-04T23:46:42.563Z,5.63
2023-02-04T23:49:09.580Z,5.03
2023-02-04T23:51:36.243Z,5.53
2023-02-04T23:54:03.401Z,5.20
2023-02-04T23:56:30.278Z,4.97
2023-02-04T23:58:57.009Z,4.72
